Time;durP1;ratioP1;P1;durP2;ratioP2;P2;SDS_P1;SDS_P2;PMS_P1;PMS_P2;Temp;Humidity;BMP_temperature;BMP_pressure;BME280_temperature;BME280_humidity;BME280_pressure;Samples;Min_cycle;Max_cycle;Signal;HPM_P1;HPM_P2
2023/04/14 00:00:26;;;;;;;2.65;0.90;;;10.50;49.60;;;;;;4963360;28;20063;-42
2023/04/14 00:02:53;;;;;;;2.85;1.00;;;10.50;49.50;;;;;;4964295;28;20050;-43
2023/04/14 00:05:21;;;;;;;3.00;1.00;;;10.50;49.50;;;;;;4962305;28;20054;-43
2023/04/14 00:07:48;;;;;;;2.40;0.80;;;10.50;49.50;;;;;;4964834;28;20059;-44
2023/04/14 00:10:15;;;;;;;4.90;1.40;;;10.40;49.50;;;;;;4964770;28;20054;-43
2023/04/14 00:12:42;;;;;;;3.50;0.88;;;10.40;49.50;;;;;;4964384;28;20633;-42
2023/04/14 00:15:11;;;;;;;7.05;1.80;;;10.40;49.70;;;;;;4964020;28;20050;-42
2023/04/14 00:17:39;;;;;;;4.07;1.42;;;10.30;49.80;;;;;;4963780;28;20066;-44
2023/04/14 00:20:07;;;;;;;3.72;1.05;;;10.30;49.80;;;;;;4963413;28;20058;-46
2023/04/14 00:22:34;;;;;;;3.22;1.20;;;10.30;49.90;;;;;;4963320;28;20085;-43
2023/04/14 00:25:01;;;;;;;3.38;1.00;;;10.30;49.90;;;;;;4965195;28;20063;-42
2023/04/14 00:27:29;;;;;;;2.53;1.00;;;10.20;50.00;;;;;;4962752;28;20054;-43
2023/04/14 00:29:57;;;;;;;3.85;1.10;;;10.20;50.10;;;;;;4963373;28;20508;-44
2023/04/14 00:32:25;;;;;;;1.38;0.88;;;10.20;50.10;;;;;;4963301;28;20058;-43
2023/04/14 00:34:53;;;;;;;3.15;0.98;;;10.20;50.20;;;;;;4962511;28;20182;-45
2023/04/14 00:37:20;;;;;;;3.90;1.15;;;10.20;50.20;;;;;;4963094;28;20047;-44
2023/04/14 00:39:47;;;;;;;3.38;1.00;;;10.20;50.30;;;;;;4963215;28;20066;-42
2023/04/14 00:42:14;;;;;;;2.47;0.80;;;10.10;50.30;;;;;;4963706;28;20479;-45
2023/04/14 00:44:41;;;;;;;2.40;0.85;;;10.10;50.30;;;;;;4963457;28;20062;-43
2023/04/14 00:47:09;;;;;;;3.25;0.75;;;10.10;50.50;;;;;;4962616;28;20055;-43
2023/04/14 00:49:38;;;;;;;3.17;1.08;;;10.10;50.60;;;;;;4962199;28;20533;-44
2023/04/14 00:52:06;;;;;;;2.92;0.80;;;10.10;50.70;;;;;;4965089;28;20939;-42
2023/04/14 00:54:35;;;;;;;2.80;1.23;;;10.10;50.70;;;;;;4962543;28;20064;-43
2023/04/14 00:57:03;;;;;;;2.78;0.93;;;10.20;51.30;;;;;;4962967;28;20427;-43
2023/04/14 00:59:31;;;;;;;2.30;0.93;;;10.20;50.80;;;;;;4964584;28;20476;-43
2023/04/14 01:01:59;;;;;;;3.67;0.90;;;10.20;50.80;;;;;;4964129;28;20054;-44
2023/04/14 01:04:27;;;;;;;3.08;1.17;;;10.20;50.90;;;;;;5006136;23;20057;-85
2023/04/14 01:06:55;;;;;;;3.30;1.00;;;10.20;50.90;;;;;;5015004;28;20049;-85
2023/04/14 01:09:24;;;;;;;4.07;0.93;;;10.20;50.90;;;;;;5016990;28;20053;-85
2023/04/14 01:12:01;;;;;;;3.30;0.90;;;10.10;50.80;;;;;;5019108;28;20475;-85
2023/04/14 01:14:35;;;;;;;3.42;1.17;;;10.20;50.80;;;;;;5016647;28;20480;-85
2023/04/14 01:17:09;;;;;;;;;;;10.20;50.70;;;;;;5017925;28;20041;-85
2023/04/14 01:19:55;;;;;;;3.50;1.38;;;10.20;50.60;;;;;;5016767;28;20403;-85
2023/04/14 01:22:30;;;;;;;2.00;0.88;;;10.20;50.40;;;;;;5018020;28;20084;-86
2023/04/14 01:25:14;;;;;;;3.03;1.00;;;10.10;50.40;;;;;;5016884;28;20324;-86
2023/04/14 01:27:44;;;;;;;;;;;10.10;50.50;;;;;;5025165;28;20129;-85
2023/04/14 01:30:30;;;;;;;5.53;1.23;;;10.10;50.50;;;;;;5016138;28;19932;-86
2023/04/14 01:33:03;;;;;;;3.33;1.13;;;10.00;50.40;;;;;;5016705;28;20401;-86
2023/04/14 01:35:36;;;;;;;3.72;1.50;;;10.00;50.50;;;;;;5015390;28;20160;-86
2023/04/14 01:38:08;;;;;;;4.28;1.30;;;10.00;50.60;;;;;;5023724;28;20049;-86
2023/04/14 01:40:37;;;;;;;2.90;1.10;;;9.90;50.60;;;;;;5020759;28;20057;-86
2023/04/14 01:43:10;;;;;;;4.93;1.40;;;9.90;50.70;;;;;;5020776;28;20064;-86
2023/04/14 01:45:41;;;;;;;3.40;1.15;;;9.90;50.90;;;;;;5020455;28;20060;-86
2023/04/14 01:48:11;;;;;;;3.88;0.90;;;9.80;50.90;;;;;;5020450;28;20405;-86
2023/04/14 01:50:42;;;;;;;3.17;1.08;;;9.80;51.00;;;;;;5019804;28;20068;-86
2023/04/14 01:53:12;;;;;;;2.72;0.80;;;9.90;51.10;;;;;;5020322;28;20049;-86
2023/04/14 01:55:42;;;;;;;4.82;1.00;;;9.80;51.00;;;;;;5021888;28;20049;-85
2023/04/14 01:58:11;;;;;;;2.72;0.77;;;9.80;51.10;;;;;;5021001;28;20053;-85
2023/04/14 02:00:40;;;;;;;4.30;1.38;;;9.80;51.10;;;;;;5020410;28;20045;-86
2023/04/14 02:03:08;;;;;;;2.08;1.00;;;9.80;51.20;;;;;;5021062;28;20053;-86
2023/04/14 02:05:39;;;;;;;4.25;0.90;;;9.80;51.20;;;;;;5025320;28;20100;-86
2023/04/14 02:08:12;;;;;;;3.03;0.93;;;9.80;51.30;;;;;;5020576;28;20057;-86
2023/04/14 02:10:42;;;;;;;4.15;1.10;;;9.80;51.20;;;;;;5021084;28;20064;-86
2023/04/14 02:13:11;;;;;;;2.38;1.10;;;9.70;51.10;;;;;;5020439;28;20056;-86
2023/04/14 02:15:39;;;;;;;3.90;1.10;;;9.70;51.00;;;;;;5020428;28;20053;-86
2023/04/14 02:18:08;;;;;;;4.05;1.38;;;9.70;51.00;;;;;;5024614;28;20408;-86
2023/04/14 02:20:42;;;;;;;3.15;1.00;;;9.70;51.00;;;;;;5019293;28;20076;-86
2023/04/14 02:23:09;;;;;;;5.50;1.17;;;9.70;51.10;;;;;;5018410;28;20061;-86
2023/04/14 02:25:40;;;;;;;3.33;1.08;;;9.70;51.10;;;;;;5020539;28;20384;-86
2023/04/14 02:28:15;;;;;;;5.03;1.13;;;9.60;51.10;;;;;;5018955;28;20357;-86
2023/04/14 02:30:46;;;;;;;3.85;1.10;;;9.60;51.30;;;;;;5025038;28;20050;-86
2023/04/14 02:33:18;;;;;;;3.15;0.93;;;9.60;51.30;;;;;;5019928;28;20507;-86
2023/04/14 02:35:50;;;;;;;4.13;1.00;;;9.50;51.30;;;;;;5025744;28;20056;-86
2023/04/14 02:38:22;;;;;;;3.25;1.02;;;9.50;51.90;;;;;;5020380;28;20052;-86
2023/04/14 02:40:49;;;;;;;4.53;1.13;;;9.50;51.50;;;;;;5020900;28;20053;-86
2023/04/14 02:43:20;;;;;;;5.40;1.35;;;9.50;51.50;;;;;;5019486;28;20053;-85
2023/04/14 02:45:51;;;;;;;3.63;1.48;;;9.50;51.50;;;;;;5018537;28;20052;-85
2023/04/14 02:48:21;;;;;;;3.38;1.13;;;9.40;51.40;;;;;;5020188;28;20465;-85
2023/04/14 02:50:52;;;;;;;4.35;1.33;;;9.40;51.40;;;;;;5023376;28;20405;-85
2023/04/14 02:53:22;;;;;;;3.22;1.20;;;9.40;51.40;;;;;;5020146;28;20057;-85
2023/04/14 02:55:51;;;;;;;2.80;1.00;;;9.40;51.40;;;;;;5021413;28;20072;-85
2023/04/14 02:58:19;;;;;;;4.45;1.85;;;9.40;51.50;;;;;;5019652;28;20052;-87
2023/04/14 03:00:47;;;;;;;3.72;1.17;;;9.30;51.50;;;;;;5018055;28;20152;-86
2023/04/14 03:03:15;;;;;;;5.18;1.45;;;9.30;52.10;;;;;;5018941;28;20061;-86
2023/04/14 03:05:44;;;;;;;4.70;1.63;;;9.30;51.70;;;;;;5018861;28;20049;-86
2023/04/14 03:08:15;;;;;;;3.55;0.82;;;9.30;51.70;;;;;;5020045;28;20049;-85
2023/04/14 03:10:46;;;;;;;7.35;1.20;;;9.30;51.60;;;;;;5019602;28;20537;-86
2023/04/14 03:13:14;;;;;;;4.25;1.55;;;9.20;51.50;;;;;;5019147;28;20056;-87
2023/04/14 03:15:42;;;;;;;2.65;1.00;;;9.20;51.50;;;;;;5018730;28;20163;-86
2023/04/14 03:18:10;;;;;;;6.55;1.05;;;9.20;51.50;;;;;;5018859;28;20512;-87
2023/04/14 03:20:40;;;;;;;4.13;1.27;;;9.20;51.60;;;;;;5017338;28;20523;-86
2023/04/14 03:23:10;;;;;;;4.25;1.30;;;9.10;51.60;;;;;;5020284;28;20057;-86
2023/04/14 03:25:40;;;;;;;5.05;1.27;;;9.10;51.70;;;;;;5019930;28;20504;-86
2023/04/14 03:28:14;;;;;;;3.78;1.15;;;9.10;51.70;;;;;;5019923;28;20057;-86
2023/04/14 03:30:46;;;;;;;3.35;1.30;;;9.00;51.70;;;;;;5019093;28;20068;-85
2023/04/14 03:33:16;;;;;;;3.53;1.25;;;9.00;51.80;;;;;;5019143;28;20417;-85
2023/04/14 03:35:46;;;;;;;5.00;1.33;;;9.00;51.80;;;;;;5017860;28;20057;-86
2023/04/14 03:38:16;;;;;;;3.30;1.17;;;9.00;51.90;;;;;;5019400;28;20050;-86
2023/04/14 03:40:47;;;;;;;2.88;1.20;;;9.00;51.90;;;;;;5019011;28;20057;-85
2023/04/14 03:43:18;;;;;;;3.53;1.00;;;9.00;52.00;;;;;;5019588;28;20053;-86
2023/04/14 03:45:48;;;;;;;3.25;0.95;;;8.90;52.00;;;;;;5019036;28;20053;-85
2023/04/14 03:48:18;;;;;;;4.90;1.23;;;8.90;52.00;;;;;;5017757;28;20076;-86
2023/04/14 03:50:50;;;;;;;6.82;1.55;;;8.90;52.00;;;;;;5023277;28;20404;-86
2023/04/14 03:53:39;;;;;;;4.28;1.27;;;8.90;52.10;;;;;;4991565;28;20050;-88
2023/04/14 03:56:12;;;;;;;5.97;1.58;;;8.90;52.10;;;;;;4994091;28;20053;-87
2023/04/14 03:58:40;;;;;;;4.40;1.55;;;8.90;52.10;;;;;;4995880;28;20050;-90
2023/04/14 04:01:08;;;;;;;4.13;1.23;;;8.90;52.10;;;;;;4996291;28;20528;-87
2023/04/14 04:03:37;;;;;;;3.13;1.00;;;8.80;52.10;;;;;;4995380;28;20081;-86
2023/04/14 04:06:05;;;;;;;5.95;1.08;;;8.80;52.20;;;;;;4996577;28;20054;-88
2023/04/14 04:08:35;;;;;;;4.47;1.10;;;8.80;52.20;;;;;;4992828;28;20058;-87
2023/04/14 04:11:06;;;;;;;3.25;0.80;;;8.80;52.30;;;;;;5001000;28;20065;-87
2023/04/14 04:13:36;;;;;;;3.75;1.23;;;8.80;52.30;;;;;;5019451;28;20060;-86
2023/04/14 04:16:06;;;;;;;4.47;1.40;;;8.70;52.30;;;;;;5019712;28;20509;-87
2023/04/14 04:18:37;;;;;;;4.18;1.42;;;8.70;52.20;;;;;;5016941;28;20580;-87
2023/04/14 04:21:05;;;;;;;3.10;1.55;;;8.70;52.20;;;;;;5018051;28;20412;-87
2023/04/14 04:23:34;;;;;;;4.13;1.10;;;8.70;52.20;;;;;;5017296;28;20068;-87
2023/04/14 04:26:02;;;;;;;4.75;1.45;;;8.70;52.20;;;;;;5019380;28;20049;-86
2023/04/14 04:28:30;;;;;;;4.90;1.63;;;8.60;52.20;;;;;;5015601;28;20049;-87
2023/04/14 04:31:00;;;;;;;4.18;1.38;;;8.60;52.20;;;;;;5015970;28;20053;-87
2023/04/14 04:33:30;;;;;;;3.17;1.83;;;8.60;52.30;;;;;;5012967;28;20497;-87
2023/04/14 04:35:59;;;;;;;3.65;1.60;;;8.60;52.40;;;;;;5009912;28;20126;-87
2023/04/14 04:38:26;;;;;;;3.42;1.80;;;8.50;52.30;;;;;;5017707;28;20049;-87
2023/04/14 04:40:53;;;;;;;5.10;1.70;;;8.50;52.40;;;;;;5016380;28;20084;-87
2023/04/14 04:43:21;;;;;;;3.58;1.40;;;8.50;52.50;;;;;;5018275;28;20057;-86
2023/04/14 04:46:08;;;;;;;4.78;1.55;;;8.50;52.50;;;;;;5015222;28;20085;-87
2023/04/14 04:48:37;;;;;;;3.08;1.35;;;8.50;52.60;;;;;;5016796;28;20092;-88
2023/04/14 04:51:04;;;;;;;2.55;1.20;;;8.50;52.60;;;;;;5018013;28;20511;-87
2023/04/14 04:53:31;;;;;;;2.65;1.20;;;8.50;52.60;;;;;;5018183;28;20484;-87
2023/04/14 04:55:58;;;;;;;3.97;1.65;;;8.50;52.60;;;;;;5016410;28;20053;-87
2023/04/14 04:58:26;;;;;;;2.65;1.15;;;8.50;52.70;;;;;;5016815;28;20057;-87
2023/04/14 05:00:53;;;;;;;5.28;1.33;;;8.40;52.70;;;;;;5016928;28;20057;-87
2023/04/14 05:03:21;;;;;;;3.67;1.48;;;8.40;52.70;;;;;;5016498;28;20057;-88
2023/04/14 05:05:49;;;;;;;5.03;1.45;;;8.50;52.80;;;;;;5012398;28;20634;-88
2023/04/14 05:08:17;;;;;;;3.63;1.50;;;8.40;52.80;;;;;;5017484;28;20045;-88
2023/04/14 05:10:44;;;;;;;5.65;1.75;;;8.40;52.80;;;;;;5019492;28;20057;-88
2023/04/14 05:13:12;;;;;;;4.75;1.70;;;8.40;52.70;;;;;;5020659;28;20061;-88
2023/04/14 05:15:39;;;;;;;3.35;1.35;;;8.40;52.70;;;;;;5030226;28;20045;-88
2023/04/14 05:18:06;;;;;;;4.65;1.70;;;8.40;52.80;;;;;;5019168;28;20053;-88
2023/04/14 05:20:33;;;;;;;6.70;2.13;;;8.40;52.80;;;;;;5018125;28;20053;-88
2023/04/14 05:23:02;;;;;;;5.72;2.20;;;8.40;52.80;;;;;;5025213;28;20382;-88
2023/04/14 05:25:29;;;;;;;5.53;1.33;;;8.30;52.80;;;;;;5021528;28;20482;-88
2023/04/14 05:27:56;;;;;;;3.78;2.00;;;8.30;52.80;;;;;;5020771;28;20953;-87
2023/04/14 05:30:25;;;;;;;5.03;2.00;;;8.30;52.80;;;;;;5022799;28;20049;-88
2023/04/14 05:32:52;;;;;;;6.78;2.63;;;8.30;52.90;;;;;;5019788;28;20053;-87
2023/04/14 05:35:20;;;;;;;7.13;2.13;;;8.30;53.00;;;;;;5016166;28;20045;-88
2023/04/14 05:37:47;;;;;;;6.72;2.10;;;8.30;53.00;;;;;;5022457;28;20058;-89
2023/04/14 05:40:16;;;;;;;5.15;2.05;;;8.30;53.00;;;;;;5018860;28;20068;-87
2023/04/14 05:42:44;;;;;;;5.13;2.22;;;8.30;53.10;;;;;;5018874;28;20068;-88
2023/04/14 05:45:11;;;;;;;4.35;2.22;;;8.30;53.20;;;;;;5021856;28;20077;-85
2023/04/14 05:47:39;;;;;;;7.18;2.35;;;8.30;53.30;;;;;;5020162;28;20057;-84
2023/04/14 05:50:08;;;;;;;4.05;2.03;;;8.30;53.40;;;;;;5020454;28;20436;-84
2023/04/14 05:52:35;;;;;;;4.82;1.85;;;8.30;53.50;;;;;;5020926;28;20421;-84
2023/04/14 05:55:02;;;;;;;4.97;2.40;;;8.30;53.50;;;;;;5026179;28;20048;-85
2023/04/14 05:57:31;;;;;;;5.65;2.00;;;8.30;53.50;;;;;;5017518;28;20505;-84
2023/04/14 06:00:13;;;;;;;3.65;2.03;;;8.40;53.50;;;;;;5023650;28;20053;-83
2023/04/14 06:02:53;;;;;;;5.65;2.25;;;8.30;53.50;;;;;;5025666;28;20059;-85
2023/04/14 06:05:23;;;;;;;8.77;3.67;;;8.40;53.50;;;;;;5022204;28;20084;-84
2023/04/14 06:07:51;;;;;;;7.18;3.03;;;8.40;53.60;;;;;;5027068;28;20053;-85
2023/04/14 06:10:20;;;;;;;6.95;3.15;;;8.40;53.70;;;;;;5026837;28;20402;-82
2023/04/14 06:12:51;;;;;;;6.28;2.40;;;8.40;53.70;;;;;;5020686;28;20057;-85
2023/04/14 06:15:19;;;;;;;5.88;2.83;;;8.50;53.80;;;;;;5023361;28;20417;-86
2023/04/14 06:17:52;;;;;;;3.90;2.35;;;8.50;53.90;;;;;;5022645;28;20064;-87
2023/04/14 06:20:20;;;;;;;4.60;2.20;;;8.50;53.90;;;;;;5020443;28;20058;-90
2023/04/14 06:22:48;;;;;;;5.13;2.35;;;8.60;54.00;;;;;;5018275;28;20390;-84
2023/04/14 06:25:15;;;;;;;8.25;2.45;;;8.60;54.00;;;;;;5021125;28;20041;-84
2023/04/14 06:27:43;;;;;;;4.15;2.22;;;8.70;54.10;;;;;;5022006;28;20065;-88
2023/04/14 06:30:14;;;;;;;5.93;2.05;;;8.70;54.20;;;;;;5021216;28;20041;-83
2023/04/14 06:32:41;;;;;;;7.15;2.53;;;8.70;54.20;;;;;;5022791;28;20065;-82
2023/04/14 06:35:09;;;;;;;8.63;3.35;;;8.80;54.30;;;;;;5018274;28;20064;-82
2023/04/14 06:37:37;;;;;;;6.05;2.13;;;8.90;54.50;;;;;;5021983;28;20057;-85
2023/04/14 06:40:05;;;;;;;5.72;2.20;;;8.90;54.50;;;;;;5021505;28;20056;-84
2023/04/14 06:42:32;;;;;;;4.85;2.17;;;8.90;54.50;;;;;;5020394;28;20057;-84
2023/04/14 06:44:59;;;;;;;5.80;2.58;;;9.00;54.60;;;;;;5022162;28;20446;-84
2023/04/14 06:47:30;;;;;;;7.90;2.75;;;9.00;55.10;;;;;;5029070;28;20058;-82
2023/04/14 06:49:57;;;;;;;4.55;1.80;;;9.10;54.70;;;;;;5018588;28;20068;-83
2023/04/14 06:52:25;;;;;;;11.48;2.85;;;9.20;54.80;;;;;;5021489;28;20057;-83
2023/04/14 06:54:52;;;;;;;7.38;2.45;;;9.20;54.90;;;;;;5027902;28;20086;-83
2023/04/14 06:57:19;;;;;;;10.80;2.50;;;9.30;55.00;;;;;;5021486;28;20508;-86
2023/04/14 06:59:47;;;;;;;8.45;2.13;;;9.40;55.10;;;;;;5020720;28;20057;-83
2023/04/14 07:02:14;;;;;;;9.73;2.78;;;9.40;55.10;;;;;;5025615;28;20060;-84
2023/04/14 07:04:43;;;;;;;6.80;2.97;;;9.50;55.10;;;;;;5019829;28;20061;-83
2023/04/14 07:07:10;;;;;;;5.45;2.10;;;9.60;55.30;;;;;;5020605;28;20057;-83
2023/04/14 07:09:37;;;;;;;6.95;2.30;;;9.70;55.20;;;;;;5022328;28;20069;-83
2023/04/14 07:12:05;;;;;;;7.05;2.25;;;9.70;55.10;;;;;;5018426;28;20069;-84
2023/04/14 07:14:33;;;;;;;5.35;2.03;;;9.80;55.10;;;;;;5022316;28;20057;-82
2023/04/14 07:17:00;;;;;;;5.82;2.15;;;9.90;55.00;;;;;;5021944;28;20163;-84
2023/04/14 07:19:27;;;;;;;4.00;1.80;;;10.00;55.00;;;;;;5015935;28;20057;-84
2023/04/14 07:21:56;;;;;;;5.68;2.05;;;10.00;55.00;;;;;;5020428;28;20077;-84
2023/04/14 07:24:23;;;;;;;4.90;1.80;;;10.10;55.10;;;;;;5021257;28;20057;-85
2023/04/14 07:26:50;;;;;;;5.15;2.00;;;10.20;55.10;;;;;;5021394;28;20137;-83
2023/04/14 07:29:18;;;;;;;6.15;1.80;;;10.30;55.20;;;;;;5021674;28;20080;-83
2023/04/14 07:31:45;;;;;;;8.18;2.05;;;10.40;55.30;;;;;;5027032;28;20065;-83
2023/04/14 07:34:12;;;;;;;7.47;2.03;;;10.50;55.20;;;;;;5017521;28;20057;-84
2023/04/14 07:36:40;;;;;;;5.20;1.92;;;10.50;55.20;;;;;;5019859;28;20058;-85
2023/04/14 07:39:09;;;;;;;4.75;1.67;;;10.60;55.10;;;;;;5020411;28;20434;-84
2023/04/14 07:41:36;;;;;;;5.35;1.38;;;10.70;54.90;;;;;;5019498;28;20057;-83
2023/04/14 07:44:03;;;;;;;5.63;2.10;;;10.80;54.90;;;;;;5020835;28;20064;-83
2023/04/14 07:46:30;;;;;;;8.20;2.00;;;10.90;54.80;;;;;;5021369;28;20049;-83
2023/04/14 07:48:58;;;;;;;6.60;1.73;;;10.90;54.70;;;;;;5020889;28;20053;-83
2023/04/14 07:51:25;;;;;;;6.05;1.80;;;11.10;54.60;;;;;;5001946;28;20505;-83
2023/04/14 07:53:54;;;;;;;2.72;1.30;;;11.10;54.40;;;;;;5020143;28;20071;-83
2023/04/14 07:56:23;;;;;;;5.60;1.67;;;11.20;54.20;;;;;;5019984;28;20161;-83
2023/04/14 07:58:50;;;;;;;7.05;1.38;;;11.30;54.10;;;;;;5026889;28;20064;-83
2023/04/14 08:01:18;;;;;;;7.25;2.38;;;11.30;53.90;;;;;;5021187;28;20053;-84
2023/04/14 08:03:45;;;;;;;7.60;1.70;;;11.40;53.70;;;;;;5018346;28;20401;-85
2023/04/14 08:06:12;;;;;;;11.57;1.58;;;11.50;53.70;;;;;;5019589;28;20524;-84
2023/04/14 08:08:40;;;;;;;7.75;2.03;;;11.60;53.60;;;;;;5021465;28;20053;-83
2023/04/14 08:11:07;;;;;;;5.63;1.73;;;11.60;53.30;;;;;;5023894;28;20157;-84
2023/04/14 08:13:35;;;;;;;5.43;1.60;;;11.70;53.20;;;;;;5019663;28;20057;-83
2023/04/14 08:16:03;;;;;;;9.75;1.90;;;11.70;53.10;;;;;;5026065;28;20053;-83
2023/04/14 08:18:30;;;;;;;7.97;1.88;;;11.80;53.10;;;;;;5019840;28;20619;-83
2023/04/14 08:20:57;;;;;;;9.68;2.50;;;11.80;53.00;;;;;;5017891;28;20363;-83
2023/04/14 08:23:24;;;;;;;7.28;1.73;;;11.90;52.30;;;;;;5020401;28;20064;-83
2023/04/14 08:25:51;;;;;;;6.63;1.73;;;12.00;52.30;;;;;;5019771;28;20064;-82
2023/04/14 08:28:19;;;;;;;13.20;2.70;;;12.10;52.10;;;;;;5020627;28;20054;-85
2023/04/14 08:30:48;;;;;;;6.80;2.22;;;12.10;51.90;;;;;;5017827;28;20049;-83
2023/04/14 08:33:15;;;;;;;6.35;1.83;;;12.20;51.90;;;;;;5019145;28;20054;-82
2023/04/14 08:35:42;;;;;;;16.33;2.70;;;12.20;51.60;;;;;;5017883;28;20073;-84
2023/04/14 08:41:34;;;;;;;8.13;2.20;;;12.30;50.30;;;;;;5020674;28;20052;-85
2023/04/14 08:44:01;;;;;;;9.27;2.17;;;12.40;50.80;;;;;;5021855;28;20171;-83
2023/04/14 08:46:31;;;;;;;8.80;2.00;;;12.40;50.90;;;;;;5021265;28;20362;-83
2023/04/14 08:49:03;;;;;;;9.55;1.85;;;12.50;50.90;;;;;;5016690;28;20477;-83
2023/04/14 08:51:34;;;;;;;9.77;1.95;;;12.50;50.70;;;;;;5020862;28;20359;-83
2023/04/14 08:54:04;;;;;;;7.85;2.28;;;12.60;50.50;;;;;;5020865;28;20060;-82
2023/04/14 08:56:37;;;;;;;6.32;1.88;;;12.60;50.50;;;;;;5024228;28;20452;-82
2023/04/14 08:59:05;;;;;;;6.82;1.50;;;12.70;50.30;;;;;;5019878;28;20393;-82
2023/04/14 09:01:38;;;;;;;7.25;1.60;;;12.70;50.10;;;;;;5019013;28;20053;-93
2023/04/14 09:04:07;;;;;;;9.05;1.60;;;12.80;50.00;;;;;;5018088;28;20057;-85
2023/04/14 09:06:35;;;;;;;7.28;1.80;;;12.90;50.10;;;;;;5020195;28;20066;-84
2023/04/14 09:09:05;;;;;;;9.00;1.88;;;12.90;49.80;;;;;;5021207;28;20436;-85
2023/04/14 09:11:33;;;;;;;8.35;2.35;;;12.90;49.30;;;;;;5013709;28;20057;-84
2023/04/14 09:14:01;;;;;;;18.60;6.25;;;13.00;49.50;;;;;;5019475;28;20073;-82
2023/04/14 09:16:29;;;;;;;17.70;5.63;;;13.10;49.50;;;;;;5018872;28;20045;-82
2023/04/14 09:18:57;;;;;;;8.05;2.60;;;13.10;49.60;;;;;;5019608;28;20390;-83
2023/04/14 09:21:26;;;;;;;9.20;1.95;;;13.20;49.30;;;;;;5020305;28;20076;-82
2023/04/14 09:23:53;;;;;;;7.88;2.08;;;13.20;49.00;;;;;;5019332;28;20406;-82
2023/04/14 09:26:21;;;;;;;7.50;1.85;;;13.30;49.10;;;;;;5013827;28;20409;-82
2023/04/14 09:28:48;;;;;;;8.80;1.50;;;13.30;49.30;;;;;;5018840;28;20045;-84
2023/04/14 09:31:16;;;;;;;9.50;1.95;;;13.40;49.30;;;;;;5016980;28;20498;-82
2023/04/14 09:33:46;;;;;;;9.02;2.08;;;13.40;49.00;;;;;;5022386;28;20161;-88
2023/04/14 09:36:20;;;;;;;6.85;1.65;;;13.60;49.10;;;;;;5015053;28;20049;-83
2023/04/14 09:38:49;;;;;;;10.13;1.60;;;13.60;48.80;;;;;;5017704;28;20057;-82
2023/04/14 09:41:17;;;;;;;6.80;1.40;;;13.60;48.60;;;;;;5017749;28;20938;-82
2023/04/14 09:43:45;;;;;;;7.40;1.80;;;13.70;48.40;;;;;;5017379;28;21207;-82
2023/04/14 09:46:14;;;;;;;7.43;1.83;;;13.70;48.50;;;;;;5014322;28;20053;-83
2023/04/14 09:48:51;;;;;;;10.00;1.50;;;13.70;48.40;;;;;;5018263;28;20053;-82
2023/04/14 09:51:22;;;;;;;8.90;1.98;;;13.80;47.80;;;;;;5018631;28;20060;-84
2023/04/14 09:53:52;;;;;;;7.22;1.80;;;13.80;47.80;;;;;;5018149;28;20057;-82
2023/04/14 09:56:20;;;;;;;6.95;1.45;;;13.90;47.90;;;;;;5017862;28;20053;-83
2023/04/14 09:58:49;;;;;;;6.85;1.55;;;13.90;47.80;;;;;;5026279;28;20416;-82
2023/04/14 10:01:17;;;;;;;7.25;1.40;;;14.00;47.70;;;;;;5018980;28;20049;-83
2023/04/14 10:03:46;;;;;;;6.07;1.35;;;14.00;47.60;;;;;;5019253;28;20543;-83
2023/04/14 10:06:16;;;;;;;7.35;1.45;;;14.00;47.70;;;;;;5023388;28;20084;-83
2023/04/14 10:08:47;;;;;;;9.98;1.80;;;14.20;47.40;;;;;;5022196;28;20068;-86
2023/04/14 10:11:16;;;;;;;4.82;1.40;;;14.20;47.10;;;;;;5022519;28;20073;-83
2023/04/14 10:13:44;;;;;;;5.35;1.58;;;14.30;47.10;;;;;;5022456;28;20149;-86
2023/04/14 10:16:11;;;;;;;7.70;1.75;;;14.30;46.70;;;;;;5023364;28;20049;-83
2023/04/14 10:18:39;;;;;;;3.67;1.35;;;14.30;46.90;;;;;;5019894;28;20084;-84
2023/04/14 10:21:07;;;;;;;9.52;1.58;;;14.40;47.20;;;;;;5020894;28;20053;-82
2023/04/14 10:23:37;;;;;;;7.65;1.52;;;14.40;46.60;;;;;;5019412;28;20057;-83
2023/04/14 10:26:08;;;;;;;8.23;1.58;;;14.50;46.70;;;;;;5020682;28;20061;-82
2023/04/14 10:28:37;;;;;;;12.77;2.08;;;14.60;46.80;;;;;;5021014;28;20507;-83
2023/04/14 10:31:14;;;;;;;5.43;1.48;;;14.60;47.10;;;;;;5022332;28;20058;-92
2023/04/14 10:33:42;;;;;;;7.80;2.17;;;14.60;46.40;;;;;;5019699;28;20076;-88
2023/04/14 10:36:09;;;;;;;9.93;2.65;;;14.70;46.40;;;;;;5020563;28;20455;-83
2023/04/14 10:38:41;;;;;;;12.45;2.85;;;14.70;45.90;;;;;;5021425;28;20058;-83
2023/04/14 10:41:10;;;;;;;6.43;2.10;;;14.80;45.80;;;;;;5022566;28;20094;-83
2023/04/14 10:43:38;;;;;;;6.18;1.75;;;14.80;45.70;;;;;;5022081;28;20065;-82
2023/04/14 10:46:08;;;;;;;6.70;1.23;;;14.80;45.70;;;;;;5020223;28;20053;-83
2023/04/14 10:48:37;;;;;;;4.15;1.10;;;14.80;45.50;;;;;;5020238;28;20631;-83
2023/04/14 10:51:07;;;;;;;6.65;1.50;;;14.90;45.60;;;;;;5022228;28;20053;-83
2023/04/14 10:53:37;;;;;;;8.63;1.50;;;14.90;45.60;;;;;;5018027;28;20053;-83
2023/04/14 10:56:05;;;;;;;6.50;1.70;;;14.90;45.70;;;;;;5022223;28;20053;-83
2023/04/14 10:58:37;;;;;;;7.20;1.75;;;15.00;45.40;;;;;;5019936;28;20053;-83
2023/04/14 11:01:24;;;;;;;5.75;1.50;;;15.00;45.20;;;;;;5018922;28;20053;-87
2023/04/14 11:03:53;;;;;;;7.85;1.55;;;15.00;45.30;;;;;;5019683;28;20076;-85
2023/04/14 11:06:53;;;;;;;5.82;1.23;;;15.10;45.10;;;;;;5019902;28;20060;-87
2023/04/14 11:09:26;;;;;;;4.68;1.42;;;15.20;44.60;;;;;;5020397;28;20053;-83
2023/04/14 11:11:56;;;;;;;8.40;1.40;;;15.20;43.90;;;;;;5018272;28;20050;-86
2023/04/14 11:14:30;;;;;;;7.90;1.17;;;15.30;44.00;;;;;;5019283;28;20413;-87
2023/04/14 11:16:59;;;;;;;8.07;1.45;;;15.30;44.00;;;;;;5016378;28;20052;-83
2023/04/14 11:19:27;;;;;;;6.93;1.42;;;15.30;43.80;;;;;;5018172;28;20061;-86
2023/04/14 11:21:54;;;;;;;3.25;1.20;;;15.40;43.90;;;;;;5015723;28;20041;-83
2023/04/14 11:24:21;;;;;;;6.72;1.42;;;15.40;43.80;;;;;;5020920;28;20144;-83
2023/04/14 11:26:52;;;;;;;9.45;1.40;;;15.50;43.80;;;;;;5019263;28;20045;-83
2023/04/14 11:29:19;;;;;;;8.02;1.23;;;15.50;43.20;;;;;;5020646;28;20058;-83
2023/04/14 11:32:00;;;;;;;3.22;1.10;;;15.50;43.00;;;;;;5023528;28;20054;-83
2023/04/14 11:34:28;;;;;;;3.90;1.05;;;15.60;42.90;;;;;;5025613;28;20053;-83
2023/04/14 11:37:45;;;;;;;3.65;1.38;;;15.60;43.00;;;;;;5018911;28;20064;-83
2023/04/14 11:40:14;;;;;;;3.38;0.80;;;15.60;41.90;;;;;;5020613;28;20566;-84
2023/04/14 11:42:45;;;;;;;5.40;1.10;;;15.60;42.10;;;;;;5018994;28;20802;-83
2023/04/14 11:45:15;;;;;;;7.32;1.20;;;15.60;41.60;;;;;;5019950;28;20053;-83
2023/04/14 11:47:56;;;;;;;5.90;1.42;;;15.70;41.70;;;;;;5016623;28;20425;-82
2023/04/14 11:50:24;;;;;;;5.47;1.00;;;15.70;41.40;;;;;;5018882;28;20061;-84
2023/04/14 11:52:52;;;;;;;2.95;0.90;;;15.70;41.60;;;;;;5019373;28;20041;-83
2023/04/14 11:55:21;;;;;;;7.13;1.23;;;15.80;42.00;;;;;;5020501;28;20141;-86
2023/04/14 11:57:49;;;;;;;4.88;1.40;;;15.70;41.10;;;;;;5021517;28;20045;-83
2023/04/14 12:00:16;;;;;;;7.07;1.30;;;15.80;40.40;;;;;;5019324;28;20057;-83
2023/04/14 12:02:45;;;;;;;4.00;0.98;;;15.80;40.30;;;;;;5017161;28;20068;-82
2023/04/14 12:05:18;;;;;;;6.15;1.20;;;15.80;40.40;;;;;;4982994;28;1050266;-84
2023/04/14 12:07:47;;;;;;;3.20;0.80;;;15.90;40.80;;;;;;5019461;28;20058;-83
2023/04/14 12:10:15;;;;;;;4.95;1.17;;;15.90;40.50;;;;;;5020844;28;20061;-82
2023/04/14 12:12:42;;;;;;;3.20;1.00;;;15.90;40.20;;;;;;5017626;28;20068;-85
2023/04/14 12:15:12;;;;;;;3.40;0.90;;;16.00;40.10;;;;;;5021507;28;20058;-84
2023/04/14 12:17:40;;;;;;;3.38;1.08;;;16.00;39.80;;;;;;5020446;28;20053;-85
2023/04/14 12:20:18;;;;;;;2.45;0.70;;;16.00;39.20;;;;;;5019466;28;20049;-84
2023/04/14 12:22:46;;;;;;;4.22;0.68;;;16.10;38.90;;;;;;5020735;28;20056;-85
2023/04/14 12:25:13;;;;;;;4.70;1.10;;;16.10;39.00;;;;;;5022244;28;20049;-84
2023/04/14 12:27:40;;;;;;;5.43;1.20;;;16.20;38.10;;;;;;5023609;28;20069;-85
2023/04/14 12:30:09;;;;;;;3.30;0.90;;;16.20;38.00;;;;;;5015678;28;20049;-84
2023/04/14 12:32:58;;;;;;;2.05;0.77;;;16.20;37.30;;;;;;5018715;28;20111;-85
2023/04/14 12:35:34;;;;;;;5.15;1.40;;;16.30;37.10;;;;;;5021435;28;20394;-88
2023/04/14 12:38:08;;;;;;;5.35;0.90;;;16.40;37.80;;;;;;5025821;28;20057;-85
2023/04/14 12:40:40;;;;;;;3.95;1.00;;;16.40;38.00;;;;;;5023231;28;20057;-83
2023/04/14 12:43:07;;;;;;;2.83;0.70;;;16.40;37.80;;;;;;5017154;28;20060;-84
2023/04/14 12:45:41;;;;;;;2.75;1.00;;;16.50;37.90;;;;;;5020793;28;20053;-84
2023/04/14 12:48:08;;;;;;;;;;;16.50;37.30;;;;;;5025592;28;20041;-84
2023/04/14 12:50:37;;;;;;;2.47;1.02;;;16.50;38.10;;;;;;5018163;28;19932;-84
2023/04/14 12:53:22;;;;;;;1.95;0.50;;;16.60;37.50;;;;;;5019874;28;20049;-84
2023/04/14 12:56:04;;;;;;;3.72;0.90;;;16.60;36.50;;;;;;5020183;28;20402;-83
2023/04/14 12:58:32;;;;;;;2.60;0.80;;;16.60;36.80;;;;;;5017548;28;20057;-84
2023/04/14 13:00:59;;;;;;;2.10;0.60;;;16.60;36.70;;;;;;5019101;28;20053;-83
2023/04/14 13:03:43;;;;;;;5.63;1.70;;;16.60;36.30;;;;;;5017676;28;20068;-84
2023/04/14 13:06:15;;;;;;;3.95;0.98;;;16.60;36.40;;;;;;5017624;28;21138;-84